createdAt,value
2023-03-07T00:01:06.476Z,3.79
2023-03-07T00:04:33.461Z,5.07
2023-03-07T00:07:44.353Z,6.83
2023-03-07T00:10:34.728Z,7.72
2023-03-07T00:13:05.325Z,7.03
2023-03-07T00:15:56.041Z,5.82
2023-03-07T00:18:25.436Z,4.75
2023-03-07T00:21:18.012Z,4.11
2023-03-07T00:23:53.998Z,4.03
2023-03-07T00:26:43.674Z,5.39
2023-03-07T00:29:16.505Z,6.67
2023-03-07T00:31:49.773Z,7.44
2023-03-07T00:34:40.974Z,7.69
2023-03-07T00:37:34.412Z,6.45
2023-03-07T00:40:25.420Z,5.20
2023-03-07T00:43:32.409Z,4.36
2023-03-07T00:46:01.335Z,4.31
2023-03-07T00:48:50.890Z,5.51
2023-03-07T00:51:27.250Z,6.63
2023-03-07T00:54:40.176Z,7.38
2023-03-07T00:57:48.243Z,7.72
2023-03-07T01:00:44.220Z,6.45
2023-03-07T01:03:24.758Z,5.22
2023-03-07T01:06:20.951Z,4.44
2023-03-07T01:08:48.809Z,3.87
2023-03-07T01:11:35.021Z,3.93
2023-03-07T01:14:17.222Z,5.51
2023-03-07T01:16:50.697Z,6.78
2023-03-07T01:19:21.061Z,7.59
2023-03-07T01:21:48.694Z,7.87
2023-03-07T01:24:37.470Z,6.90
2023-03-07T01:27:20.667Z,5.65
2023-03-07T01:30:02.729Z,4.79
2023-03-07T01:32:36.242Z,4.20
2023-03-07T01:35:09.414Z,3.73
2023-03-07T01:37:37.804Z,3.73
2023-03-07T01:40:31.051Z,5.25
2023-03-07T01:43:24.320Z,6.76
2023-03-07T01:45:51.862Z,7.65
2023-03-07T01:48:19.704Z,7.37
2023-03-07T01:50:50.157Z,6.27
2023-03-07T01:53:34.967Z,5.38
2023-03-07T01:56:03.078Z,4.67
2023-03-07T01:58:39.092Z,4.16
2023-03-07T02:08:03.493Z,5.98
2023-03-07T02:10:35.583Z,7.17
2023-03-07T02:13:17.069Z,7.76
2023-03-07T02:15:44.723Z,6.92
2023-03-07T02:18:21.544Z,5.81
2023-03-07T02:21:12.719Z,5.01
2023-03-07T02:24:13.620Z,4.38
2023-03-07T02:27:06.749Z,3.88
2023-03-07T02:29:34.277Z,4.11
2023-03-07T02:32:07.709Z,5.76
2023-03-07T02:34:56.193Z,7.02
2023-03-07T02:37:46.676Z,7.82
2023-03-07T02:40:20.565Z,7.12
2023-03-07T02:42:50.562Z,5.99
2023-03-07T02:45:22.775Z,5.17
2023-03-07T02:47:52.144Z,4.57
2023-03-07T02:50:21.812Z,4.12
2023-03-07T02:52:51.077Z,4.11
2023-03-07T02:55:20.068Z,5.50
2023-03-07T02:57:56.299Z,6.76
2023-03-07T03:00:23.602Z,7.69
2023-03-07T03:02:52.540Z,8.09
2023-03-07T03:05:20.975Z,7.17
2023-03-07T03:07:49.749Z,5.96
2023-03-07T03:10:18.319Z,5.01
2023-03-07T03:12:50.695Z,4.30
2023-03-07T03:15:19.033Z,4.24
2023-03-07T03:17:46.781Z,5.69
2023-03-07T03:20:14.575Z,6.61
2023-03-07T03:22:42.089Z,7.18
2023-03-07T03:25:12.414Z,7.25
2023-03-07T03:27:41.469Z,6.15
2023-03-07T03:30:10.826Z,5.03
2023-03-07T03:32:39.663Z,4.19
2023-03-07T03:35:08.861Z,4.08
2023-03-07T03:37:36.090Z,5.56
2023-03-07T03:40:07.289Z,6.61
2023-03-07T03:42:34.579Z,7.25
2023-03-07T03:45:01.654Z,7.67
2023-03-07T03:47:29.801Z,7.75
2023-03-07T03:49:57.082Z,6.66
2023-03-07T03:52:24.409Z,5.52
2023-03-07T03:54:51.523Z,4.61
2023-03-07T03:57:22.678Z,4.38
2023-03-07T03:59:50.979Z,5.89
2023-03-07T04:02:18.827Z,6.97
2023-03-07T04:04:46.582Z,7.44
2023-03-07T04:07:13.725Z,7.48
2023-03-07T04:09:41.632Z,6.39
2023-03-07T04:12:09.879Z,5.28
2023-03-07T04:14:37.069Z,4.42
2023-03-07T04:17:04.313Z,3.80
2023-03-07T04:19:31.762Z,3.79
2023-03-07T04:21:58.922Z,5.47
2023-03-07T04:24:26.219Z,6.88
2023-03-07T04:26:53.578Z,7.53
2023-03-07T04:29:21.853Z,7.89
2023-03-07T04:31:49.587Z,7.81
2023-03-07T04:34:16.763Z,6.61
2023-03-07T04:36:44.254Z,5.44
2023-03-07T04:39:12.213Z,4.56
2023-03-07T04:41:41.131Z,3.89
2023-03-07T04:44:08.894Z,3.80
2023-03-07T04:46:36.592Z,5.46
2023-03-07T04:49:03.734Z,7.00
2023-03-07T04:51:30.652Z,7.79
2023-03-07T04:53:58.013Z,7.82
2023-03-07T04:56:25.527Z,6.71
2023-03-07T04:58:53.033Z,5.55
2023-03-07T05:01:20.656Z,4.67
2023-03-07T05:03:47.788Z,3.99
2023-03-07T05:06:16.271Z,3.98
2023-03-07T05:08:43.628Z,5.66
2023-03-07T05:11:12.475Z,7.21
2023-03-07T05:13:39.622Z,8.06
2023-03-07T05:16:07.601Z,8.10
2023-03-07T05:18:37.087Z,6.95
2023-03-07T05:21:04.347Z,5.80
2023-03-07T05:23:31.839Z,4.97
2023-03-07T05:25:59.077Z,4.33
2023-03-07T05:28:26.309Z,4.44
2023-03-07T05:30:54.929Z,6.15
2023-03-07T05:33:22.352Z,7.50
2023-03-07T05:35:50.576Z,8.30
2023-03-07T05:38:18.365Z,8.36
2023-03-07T05:40:46.311Z,7.09
2023-03-07T05:43:13.457Z,5.88
2023-03-07T05:45:40.726Z,5.00
2023-03-07T05:48:08.293Z,4.32
2023-03-07T05:50:39.099Z,4.22
2023-03-07T05:53:07.110Z,5.92
2023-03-07T05:55:37.993Z,7.47
2023-03-07T05:58:06.414Z,8.40
2023-03-07T06:00:34.930Z,8.59
2023-03-07T06:03:06.256Z,7.34
2023-03-07T06:05:37.889Z,5.90
2023-03-07T06:08:08.533Z,4.87
2023-03-07T06:10:35.941Z,5.68
2023-03-07T06:13:03.748Z,7.39
2023-03-07T06:15:30.989Z,8.25
2023-03-07T06:17:58.115Z,7.35
2023-03-07T06:20:26.260Z,6.07
2023-03-07T06:22:53.683Z,4.97
2023-03-07T06:25:22.059Z,4.81
2023-03-07T06:27:49.727Z,6.40
2023-03-07T06:30:16.979Z,7.76
2023-03-07T06:32:46.910Z,8.26
2023-03-07T06:35:13.940Z,7.21
2023-03-07T06:37:46.286Z,5.92
2023-03-07T06:40:13.576Z,4.95
2023-03-07T06:42:40.962Z,4.36
2023-03-07T06:45:08.820Z,5.46
2023-03-07T06:47:36.089Z,7.10
2023-03-07T06:51:02.853Z,8.05
2023-03-07T06:54:08.303Z,6.94
2023-03-07T06:56:51.730Z,5.54
2023-03-07T06:59:25.765Z,4.74
2023-03-07T07:02:38.055Z,4.20
2023-03-07T07:05:55.938Z,4.66
2023-03-07T07:08:25.551Z,6.83
2023-03-07T07:10:56.176Z,8.14
2023-03-07T07:13:24.438Z,8.56
2023-03-07T07:15:51.797Z,7.53
2023-03-07T07:18:18.925Z,6.36
2023-03-07T07:20:46.479Z,5.60
2023-03-07T07:23:23.790Z,5.04
2023-03-07T07:25:50.881Z,5.06
2023-03-07T07:28:18.560Z,6.81
2023-03-07T07:30:48.583Z,8.12
2023-03-07T07:33:16.483Z,8.02
2023-03-07T07:35:44.968Z,6.97
2023-03-07T07:38:13.724Z,5.98
2023-03-07T07:40:40.955Z,6.03
2023-03-07T07:43:08.522Z,7.58
2023-03-07T07:45:38.266Z,8.82
2023-03-07T07:48:06.491Z,8.31
2023-03-07T07:50:34.404Z,7.11
2023-03-07T07:53:02.335Z,6.10
2023-03-07T07:55:29.602Z,5.89
2023-03-07T07:57:56.772Z,7.08
2023-03-07T08:00:24.579Z,8.13
2023-03-07T08:02:53.880Z,7.68
2023-03-07T08:05:26.010Z,6.77
2023-03-07T08:08:15.781Z,6.07
2023-03-07T08:11:02.846Z,6.10
2023-03-07T08:13:33.760Z,7.38
2023-03-07T08:16:13.106Z,7.26
2023-03-07T08:18:56.011Z,6.35
2023-03-07T08:21:30.850Z,5.72
2023-03-07T08:24:01.402Z,6.65
2023-03-07T08:26:28.962Z,7.76
2023-03-07T08:29:05.387Z,7.30
2023-03-07T08:32:12.221Z,6.39
2023-03-07T08:34:53.483Z,5.72
2023-03-07T08:37:24.006Z,6.38
2023-03-07T08:39:55.633Z,7.96
2023-03-07T08:43:11.351Z,7.79
2023-03-07T08:46:01.679Z,6.68
2023-03-07T08:48:53.348Z,6.00
2023-03-07T08:51:22.026Z,5.54
2023-03-07T08:53:51.539Z,5.34
2023-03-07T08:56:24.205Z,6.45
2023-03-07T08:59:26.957Z,8.08
2023-03-07T09:02:14.851Z,7.46
2023-03-07T09:04:54.047Z,6.66
2023-03-07T09:07:26.545Z,6.11
2023-03-07T09:10:08.950Z,5.84
2023-03-07T09:12:58.093Z,5.70
2023-03-07T09:16:05.681Z,6.35
2023-03-07T09:18:35.749Z,7.92
2023-03-07T09:21:48.755Z,7.47
2023-03-07T09:24:37.706Z,6.94
2023-03-07T09:27:28.436Z,6.71
2023-03-07T09:30:35.712Z,6.67
2023-03-07T09:33:46.204Z,6.59
2023-03-07T09:36:38.640Z,6.56
2023-03-07T09:40:05.612Z,6.47
2023-03-07T09:43:12.133Z,6.29
2023-03-07T09:46:18.367Z,6.26
2023-03-07T09:49:31.708Z,6.23
2023-03-07T09:52:26.874Z,6.21
2023-03-07T09:55:39.847Z,6.20
2023-03-07T09:58:38.435Z,6.06
2023-03-07T10:02:07.464Z,6.05
2023-03-07T10:05:34.393Z,6.06
2023-03-07T10:08:39.525Z,6.01
2023-03-07T10:12:21.601Z,5.89
2023-03-07T10:15:52.129Z,5.82
2023-03-07T10:18:42.647Z,5.70
2023-03-07T10:21:21.141Z,5.57
2023-03-07T10:24:50.558Z,5.43
2023-03-07T10:27:21.586Z,5.26
2023-03-07T10:30:22.226Z,5.17
2023-03-07T10:33:01.406Z,5.05
2023-03-07T10:36:26.737Z,4.97
2023-03-07T10:39:24.328Z,4.86
2023-03-07T10:42:23.203Z,4.85
2023-03-07T10:45:34.418Z,4.84
2023-03-07T10:48:18.593Z,4.85
2023-03-07T10:51:38.795Z,4.95
2023-03-07T10:55:09.487Z,5.10
2023-03-07T10:57:39.148Z,5.22
2023-03-07T11:00:19.845Z,5.28
2023-03-07T11:02:47.815Z,5.27
2023-03-07T11:05:47.952Z,5.24
2023-03-07T11:08:37.331Z,5.23
2023-03-07T11:11:08.794Z,5.24
2023-03-07T11:13:36.873Z,5.25
2023-03-07T11:16:20.232Z,5.27
2023-03-07T11:18:49.668Z,5.30
2023-03-07T11:21:36.591Z,5.34
2023-03-07T11:24:18.308Z,5.41
2023-03-07T11:26:47.337Z,5.41
2023-03-07T11:29:14.938Z,5.43
2023-03-07T11:32:22.281Z,5.43
2023-03-07T11:35:08.168Z,5.49
2023-03-07T11:38:07.675Z,5.52
2023-03-07T11:40:49.838Z,5.58
2023-03-07T11:43:47.161Z,5.64
2023-03-07T11:46:24.746Z,5.71
2023-03-07T11:49:24.505Z,5.73
2023-03-07T11:52:37.266Z,5.78
2023-03-07T11:55:16.648Z,5.81
2023-03-07T11:57:50.362Z,5.75
2023-03-07T12:00:45.605Z,5.82
2023-03-07T12:03:25.439Z,5.81
2023-03-07T12:06:17.789Z,5.79
2023-03-07T12:08:51.240Z,5.73
2023-03-07T12:11:53.577Z,5.71
2023-03-07T12:14:38.301Z,5.84
2023-03-07T12:17:18.423Z,5.76
2023-03-07T12:20:24.636Z,5.78
2023-03-07T12:23:10.546Z,5.83
2023-03-07T12:25:45.017Z,5.81
2023-03-07T12:28:21.233Z,5.79
2023-03-07T12:31:07.030Z,5.78
2023-03-07T12:33:58.880Z,5.82
2023-03-07T12:36:52.211Z,5.94
2023-03-07T12:39:48.026Z,6.00
2023-03-07T12:42:38.658Z,6.03
2023-03-07T12:45:13.899Z,6.06
2023-03-07T12:48:00.107Z,6.12
2023-03-07T12:50:52.474Z,6.19
2023-03-07T12:53:37.500Z,6.23
2023-03-07T12:56:22.007Z,6.28
2023-03-07T12:59:15.896Z,6.25
2023-03-07T13:02:02.131Z,6.26
2023-03-07T13:04:40.112Z,6.29
2023-03-07T13:07:34.986Z,6.24
2023-03-07T13:10:07.786Z,6.28
2023-03-07T13:12:39.540Z,6.28
2023-03-07T13:15:28.276Z,6.25
2023-03-07T13:18:13.970Z,6.28
2023-03-07T13:21:10.525Z,6.25
2023-03-07T13:23:39.808Z,6.31
2023-03-07T13:26:13.347Z,6.31
2023-03-07T13:29:06.046Z,6.28
2023-03-07T13:32:00.446Z,6.29
2023-03-07T13:35:07.553Z,6.26
2023-03-07T13:38:17.187Z,6.20
2023-03-07T13:40:48.927Z,6.24
2023-03-07T13:43:29.200Z,6.24
2023-03-07T13:46:04.012Z,6.27
2023-03-07T13:48:55.009Z,6.32
2023-03-07T13:51:23.876Z,6.35
2023-03-07T13:54:20.740Z,6.37
2023-03-07T13:57:30.877Z,6.35
2023-03-07T14:00:21.085Z,6.36
2023-03-07T14:03:29.525Z,6.33
2023-03-07T14:06:24.479Z,6.25
2023-03-07T14:09:08.000Z,6.27
2023-03-07T14:11:35.779Z,6.26
2023-03-07T14:14:42.826Z,6.22
2023-03-07T14:18:01.414Z,6.15
2023-03-07T14:21:03.133Z,6.10
2023-03-07T14:24:10.310Z,6.15
2023-03-07T14:27:10.789Z,6.10
2023-03-07T14:30:18.513Z,6.07
2023-03-07T14:33:05.618Z,6.10
2023-03-07T14:35:55.689Z,6.12
2023-03-07T14:39:22.620Z,6.13
2023-03-07T14:42:53.994Z,6.07
2023-03-07T14:45:52.852Z,6.10
2023-03-07T14:49:00.978Z,6.15
2023-03-07T14:51:37.632Z,6.20
2023-03-07T14:54:33.080Z,6.26
2023-03-07T14:58:03.328Z,6.28
2023-03-07T15:01:08.714Z,6.28
2023-03-07T15:04:15.506Z,6.31
2023-03-07T15:06:51.549Z,6.28
2023-03-07T15:09:23.657Z,6.26
2023-03-07T15:12:01.263Z,6.21
2023-03-07T15:15:02.470Z,6.14
2023-03-07T15:17:50.395Z,6.11
2023-03-07T15:20:48.032Z,6.03
2023-03-07T15:23:51.488Z,5.96
2023-03-07T15:26:55.540Z,5.91
2023-03-07T15:29:49.485Z,5.90
2023-03-07T15:33:30.866Z,5.86
2023-03-07T15:36:48.217Z,5.78
2023-03-07T15:40:15.371Z,5.73
2023-03-07T15:43:26.854Z,5.67
2023-03-07T15:46:45.898Z,5.62
2023-03-07T15:49:22.704Z,5.57
2023-03-07T15:52:28.299Z,5.51
2023-03-07T15:55:57.572Z,5.48
2023-03-07T15:59:09.745Z,5.42
2023-03-07T16:01:44.109Z,5.35
2023-03-07T16:04:37.654Z,5.32
2023-03-07T16:07:31.726Z,5.27
2023-03-07T16:10:42.147Z,5.22
2023-03-07T16:13:34.399Z,5.17
2023-03-07T16:17:15.489Z,5.11
2023-03-07T16:20:42.378Z,5.05
2023-03-07T16:24:10.062Z,4.98
2023-03-07T16:27:19.093Z,4.90
2023-03-07T16:30:36.809Z,4.83
2023-03-07T16:33:17.052Z,4.76
2023-03-07T16:36:25.173Z,4.69
2023-03-07T16:39:14.110Z,4.62
2023-03-07T16:41:51.758Z,4.59
2023-03-07T16:44:47.489Z,4.57
2023-03-07T16:48:10.090Z,4.52
2023-03-07T16:51:36.862Z,4.48
2023-03-07T16:54:25.020Z,4.46
2023-03-07T16:57:40.936Z,5.03
2023-03-07T17:00:50.403Z,7.83
2023-03-07T17:04:17.442Z,8.54
2023-03-07T17:07:30.752Z,7.49
2023-03-07T17:10:52.399Z,6.60
2023-03-07T17:13:58.540Z,6.03
2023-03-07T17:16:28.217Z,5.66
2023-03-07T17:19:30.695Z,5.44
2023-03-07T17:22:04.840Z,5.22
2023-03-07T17:24:56.136Z,5.06
2023-03-07T17:28:08.230Z,4.91
2023-03-07T17:30:41.094Z,4.76
2023-03-07T17:33:30.237Z,4.65
2023-03-07T17:36:02.274Z,4.55
2023-03-07T17:38:59.339Z,4.46
2023-03-07T17:41:38.137Z,4.35
2023-03-07T17:44:08.942Z,4.26
2023-03-07T17:46:36.461Z,4.53
2023-03-07T17:50:04.177Z,5.99
2023-03-07T17:53:34.071Z,8.09
2023-03-07T17:56:59.347Z,8.94
2023-03-07T17:59:48.352Z,7.60
2023-03-07T18:03:15.099Z,6.69
2023-03-07T18:07:03.361Z,5.89
2023-03-07T18:10:51.751Z,5.34
2023-03-07T18:14:38.552Z,4.93
2023-03-07T18:17:59.312Z,4.63
2023-03-07T18:20:46.395Z,4.36
2023-03-07T18:23:23.398Z,4.20
2023-03-07T18:26:05.085Z,4.05
2023-03-07T18:28:35.476Z,3.91
2023-03-07T18:31:48.446Z,3.80
2023-03-07T18:34:26.009Z,4.61
2023-03-07T18:36:55.457Z,6.69
2023-03-07T18:39:29.757Z,8.27
2023-03-07T18:42:04.412Z,8.90
2023-03-07T18:45:02.170Z,7.87
2023-03-07T18:47:58.768Z,6.68
2023-03-07T18:50:47.377Z,5.93
2023-03-07T18:53:34.610Z,5.40
2023-03-07T18:56:26.913Z,4.99
2023-03-07T18:59:26.175Z,4.64
2023-03-07T19:01:58.743Z,4.32
2023-03-07T19:04:35.922Z,4.07
2023-03-07T19:07:04.854Z,4.14
2023-03-07T19:09:33.890Z,5.46
2023-03-07T19:12:01.243Z,6.81
2023-03-07T19:14:29.037Z,6.54
2023-03-07T19:17:55.888Z,5.70
2023-03-07T19:21:01.358Z,4.86
2023-03-07T19:23:58.942Z,4.37
2023-03-07T19:27:15.757Z,4.07
2023-03-07T19:30:22.879Z,5.20
2023-03-07T19:33:36.376Z,6.77
2023-03-07T19:36:22.752Z,7.15
2023-03-07T19:39:01.185Z,6.17
2023-03-07T19:41:49.193Z,5.44
2023-03-07T19:44:18.474Z,4.88
2023-03-07T19:46:46.971Z,4.51
2023-03-07T19:49:16.043Z,4.25
2023-03-07T19:51:43.503Z,4.77
2023-03-07T19:54:20.920Z,6.11
2023-03-07T19:56:50.555Z,6.51
2023-03-07T20:00:17.397Z,5.74
2023-03-07T20:03:49.377Z,4.83
2023-03-07T20:07:36.133Z,5.20
2023-03-07T20:11:16.110Z,6.64
2023-03-07T20:15:03.569Z,5.79
2023-03-07T20:18:34.692Z,4.97
2023-03-07T20:22:21.507Z,4.40
2023-03-07T20:26:05.139Z,4.04
2023-03-07T20:29:32.032Z,4.42
2023-03-07T20:33:19.284Z,6.49
2023-03-07T20:37:06.222Z,7.76
2023-03-07T20:40:47.372Z,7.32
2023-03-07T20:44:21.197Z,5.83
2023-03-07T20:48:08.514Z,5.08
2023-03-07T20:51:55.226Z,4.60
2023-03-07T20:55:42.757Z,4.78
2023-03-07T21:03:33.070Z,7.07
2023-03-07T21:07:15.542Z,5.94
2023-03-07T21:11:03.018Z,5.25
2023-03-07T21:14:49.786Z,4.86
2023-03-07T21:18:19.326Z,5.42
2023-03-07T21:22:09.262Z,7.41
2023-03-07T21:25:55.979Z,8.43
2023-03-07T21:29:29.350Z,7.24
2023-03-07T21:33:20.275Z,6.27
2023-03-07T21:37:07.146Z,5.63
2023-03-07T21:40:35.570Z,6.68
2023-03-07T21:43:59.736Z,8.21
2023-03-07T21:47:37.538Z,8.49
2023-03-07T21:51:24.451Z,7.22
2023-03-07T21:55:10.413Z,6.33
2023-03-07T21:57:47.100Z,5.82
2023-03-07T22:00:18.422Z,5.54
2023-03-07T22:03:30.153Z,5.91
2023-03-07T22:06:57.336Z,7.55
2023-03-07T22:10:06.308Z,8.05
2023-03-07T22:12:34.370Z,7.11
2023-03-07T22:15:45.141Z,6.49
2023-03-07T22:19:05.357Z,5.94
2023-03-07T22:21:59.051Z,5.58
2023-03-07T22:24:32.901Z,5.41
2023-03-07T22:27:40.777Z,6.41
2023-03-07T22:30:19.280Z,8.20
2023-03-07T22:32:48.803Z,9.17
2023-03-07T22:35:29.558Z,8.78
2023-03-07T22:38:51.662Z,7.78
2023-03-07T22:41:40.554Z,6.82
2023-03-07T22:44:09.489Z,6.34
2023-03-07T22:47:16.354Z,6.01
2023-03-07T22:50:43.248Z,5.66
2023-03-07T22:53:32.702Z,5.36
2023-03-07T22:56:01.956Z,5.84
2023-03-07T22:59:28.697Z,7.33
2023-03-07T23:02:22.176Z,7.93
2023-03-07T23:05:30.550Z,7.09
2023-03-07T23:08:32.093Z,6.20
2023-03-07T23:11:30.094Z,5.95
2023-03-07T23:14:43.572Z,7.33
2023-03-07T23:17:49.746Z,8.43
2023-03-07T23:20:27.484Z,7.61
2023-03-07T23:23:39.431Z,6.88
2023-03-07T23:26:11.215Z,6.23
2023-03-07T23:29:16.729Z,5.87
2023-03-07T23:32:06.094Z,5.63
2023-03-07T23:34:37.414Z,6.73
2023-03-07T23:37:57.693Z,7.89
2023-03-07T23:41:34.728Z,7.64
2023-03-07T23:48:28.419Z,5.99
2023-03-07T23:51:55.330Z,5.74
2023-03-07T23:55:42.301Z,7.31
2023-03-07T23:58:28.493Z,8.81
